Terminal Aerodrome Forecast
Issued by NWS

Home | Current Version | Previous Version | Text Only | Print | Product List | Glossary On
Versions: 1 2 3 4 5 6 7 8 9 10 11 12 13 14 15 16 17 18 19 20 21 22 23 24 25 26 27 28 29 30 31 32 33 34 35 36 37 38
000
FTUS43 KMPX 162115 AAA
TAFMKT
TAF AMD
KMKT 162115Z 1621/1718 08006KT 6SM BR SCT025
     FM170100 VRB04KT P6SM FEW150
     FM170900 VRB04KT P6SM SCT011
     FM171600 VRB04KT P6SM SCT020=

USA.gov is the U.S. government's official web portal to all federal, state and local government web resources and services.